createdAt,value
2023-05-02T00:01:09.685Z,100128.38
2023-05-02T00:03:22.862Z,100126.45
2023-05-02T00:05:35.488Z,100125.31
2023-05-02T00:07:48.302Z,100124.78
2023-05-02T00:10:03.083Z,100124.31
2023-05-02T00:12:15.869Z,100125.73
2023-05-02T00:14:28.406Z,100121.63
2023-05-02T00:16:41.232Z,100122.73
2023-05-02T00:18:53.915Z,100120.64
2023-05-02T00:21:07.160Z,100118.43
2023-05-02T00:23:19.725Z,100115.81
2023-05-02T00:25:32.474Z,100114.38
2023-05-02T00:27:46.803Z,100114.90
2023-05-02T00:30:00.651Z,100114.61
2023-05-02T00:32:13.578Z,100109.63
2023-05-02T00:34:31.055Z,100106.82
2023-05-02T00:36:43.618Z,100104.88
2023-05-02T00:38:56.159Z,100104.92
2023-05-02T00:41:08.832Z,100106.82
2023-05-02T00:43:21.480Z,100105.94
2023-05-02T00:45:34.020Z,100109.00
2023-05-02T00:47:46.655Z,100106.23
2023-05-02T00:50:01.160Z,100107.00
2023-05-02T00:52:14.271Z,100102.59
2023-05-02T00:54:27.054Z,100099.16
2023-05-02T00:56:40.070Z,100097.50
2023-05-02T00:58:53.759Z,100097.16
2023-05-02T01:01:28.003Z,100098.71
2023-05-02T01:04:15.210Z,100100.70
2023-05-02T01:06:46.315Z,100104.14
2023-05-02T01:09:23.174Z,100106.99
2023-05-02T01:11:48.304Z,100106.30
2023-05-02T01:14:05.958Z,100109.98
2023-05-02T01:16:20.144Z,100111.01
2023-05-02T01:18:36.871Z,100111.84
2023-05-02T01:20:57.241Z,100113.10
2023-05-02T01:23:30.791Z,100113.83
2023-05-02T01:25:56.708Z,100116.20
2023-05-02T01:28:15.100Z,100114.45
2023-05-02T01:30:30.869Z,100118.72
2023-05-02T01:32:46.599Z,100121.83
2023-05-02T01:35:01.830Z,100124.38
2023-05-02T01:37:17.735Z,100127.30
2023-05-02T01:39:31.011Z,100127.42
2023-05-02T01:41:45.081Z,100127.34
2023-05-02T01:43:59.411Z,100121.95
2023-05-02T01:46:15.127Z,100120.71
2023-05-02T01:48:28.535Z,100127.18
2023-05-02T01:50:43.830Z,100128.34
2023-05-02T01:52:58.779Z,100125.59
2023-05-02T01:55:14.291Z,100130.28
2023-05-02T01:57:27.462Z,100131.45
2023-05-02T01:59:41.068Z,100127.90
2023-05-02T02:01:55.762Z,100129.10
2023-05-02T02:04:11.286Z,100129.66
2023-05-02T02:06:24.822Z,100131.39
2023-05-02T02:08:37.519Z,100131.40
2023-05-02T02:10:59.551Z,100132.87
2023-05-02T02:13:27.664Z,100137.23
2023-05-02T02:15:42.198Z,100141.91
2023-05-02T02:18:07.683Z,100143.92
2023-05-02T02:20:21.896Z,100148.54
2023-05-02T02:22:38.833Z,100151.46
2023-05-02T02:24:54.413Z,100159.48
2023-05-02T02:27:07.232Z,100158.50
2023-05-02T02:29:19.791Z,100160.17
2023-05-02T02:31:36.085Z,100162.57
2023-05-02T02:33:48.808Z,100165.78
2023-05-02T02:36:24.998Z,100167.27
2023-05-02T02:38:44.945Z,100170.54
2023-05-02T02:41:06.780Z,100170.42
2023-05-02T02:43:48.094Z,100171.51
2023-05-02T02:46:19.526Z,100170.67
2023-05-02T02:48:48.781Z,100172.99
2023-05-02T02:51:15.945Z,100174.56
2023-05-02T02:53:46.981Z,100172.62
2023-05-02T02:56:06.636Z,100177.83
2023-05-02T02:58:37.069Z,100181.00
2023-05-02T03:00:50.386Z,100187.45
2023-05-02T03:03:03.439Z,100185.75
2023-05-02T03:05:16.922Z,100186.54
2023-05-02T03:07:29.760Z,100183.22
2023-05-02T03:09:47.063Z,100186.86
2023-05-02T03:11:59.643Z,100188.73
2023-05-02T03:14:12.378Z,100187.33
2023-05-02T03:16:35.300Z,100195.27
2023-05-02T03:18:47.964Z,100200.18
2023-05-02T03:21:01.020Z,100196.54
2023-05-02T03:23:13.569Z,100201.81
2023-05-02T03:25:26.317Z,100209.61
2023-05-02T03:27:38.902Z,100209.40
2023-05-02T03:29:51.534Z,100214.98
2023-05-02T03:32:04.313Z,100214.16
2023-05-02T03:34:17.072Z,100219.08
2023-05-02T03:36:29.628Z,100223.16
2023-05-02T03:38:42.191Z,100221.63
2023-05-02T03:40:57.288Z,100224.63
2023-05-02T03:43:09.887Z,100224.42
2023-05-02T03:45:22.452Z,100228.14
2023-05-02T03:47:35.146Z,100230.06
2023-05-02T03:49:47.772Z,100229.39
2023-05-02T03:52:00.888Z,100236.48
2023-05-02T03:54:13.473Z,100243.40
2023-05-02T03:56:26.052Z,100246.51
2023-05-02T03:58:38.643Z,100248.25
2023-05-02T04:00:53.510Z,100250.76
2023-05-02T04:03:07.230Z,100249.16
2023-05-02T04:05:19.909Z,100252.63
2023-05-02T04:07:32.427Z,100260.54
2023-05-02T04:09:45.793Z,100264.98
2023-05-02T04:11:58.438Z,100267.43
2023-05-02T04:14:11.033Z,100273.48
2023-05-02T04:16:23.795Z,100278.50
2023-05-02T04:18:36.481Z,100284.52
2023-05-02T04:20:50.455Z,100288.29
2023-05-02T04:23:03.078Z,100291.28
2023-05-02T04:25:16.165Z,100294.64
2023-05-02T04:27:28.679Z,100297.14
2023-05-02T04:29:41.238Z,100301.73
2023-05-02T04:31:53.950Z,100303.40
2023-05-02T04:34:07.034Z,100308.40
2023-05-02T04:36:19.719Z,100312.97
2023-05-02T04:38:32.348Z,100318.67
2023-05-02T04:40:45.930Z,100321.51
2023-05-02T04:42:58.492Z,100326.40
2023-05-02T04:45:11.234Z,100326.02
2023-05-02T04:47:23.874Z,100329.30
2023-05-02T04:49:36.553Z,100329.51
2023-05-02T04:51:49.152Z,100331.28
2023-05-02T04:54:01.767Z,100334.71
2023-05-02T04:56:14.371Z,100332.20
2023-05-02T04:58:27.130Z,100333.69
2023-05-02T05:00:39.713Z,100330.66
2023-05-02T05:02:52.933Z,100326.36
2023-05-02T05:05:06.094Z,100328.70
2023-05-02T05:07:18.628Z,100324.77
2023-05-02T05:09:31.179Z,100331.54
2023-05-02T05:11:45.380Z,100333.93
2023-05-02T05:13:58.370Z,100335.64
2023-05-02T05:16:10.955Z,100343.05
2023-05-02T05:18:23.802Z,100343.39
2023-05-02T05:20:36.354Z,100346.04
2023-05-02T05:22:48.949Z,100348.33
2023-05-02T05:25:01.619Z,100351.27
2023-05-02T05:27:14.139Z,100350.02
2023-05-02T05:29:26.735Z,100353.73
2023-05-02T05:31:39.304Z,100364.61
2023-05-02T05:33:51.886Z,100364.61
2023-05-02T05:36:09.124Z,100362.81
2023-05-02T05:38:21.701Z,100363.58
2023-05-02T05:40:34.216Z,100364.39
2023-05-02T05:42:46.808Z,100370.38
2023-05-02T05:44:59.297Z,100369.38
2023-05-02T05:47:12.198Z,100368.56
2023-05-02T05:49:25.050Z,100374.31
2023-05-02T05:51:37.582Z,100378.46
2023-05-02T05:53:50.114Z,100377.20
2023-05-02T05:56:13.184Z,100381.41
2023-05-02T05:58:25.944Z,100383.30
2023-05-02T06:00:39.795Z,100385.46
2023-05-02T06:02:52.425Z,100385.49
2023-05-02T06:05:05.574Z,100390.88
2023-05-02T06:07:18.151Z,100393.86
2023-05-02T06:09:30.801Z,100400.88
2023-05-02T06:11:43.295Z,100400.33
2023-05-02T06:13:55.959Z,100393.27
2023-05-02T06:16:08.508Z,100396.67
2023-05-02T06:18:21.591Z,100397.56
2023-05-02T06:20:36.649Z,100398.48
2023-05-02T06:22:49.183Z,100402.40
2023-05-02T06:25:02.005Z,100406.67
2023-05-02T06:27:14.517Z,100411.80
2023-05-02T06:29:27.042Z,100414.79
2023-05-02T06:31:39.543Z,100422.94
2023-05-02T06:33:52.506Z,100423.80
2023-05-02T06:36:05.180Z,100426.92
2023-05-02T06:38:18.532Z,100428.66
2023-05-02T06:40:31.264Z,100433.52
2023-05-02T06:42:43.787Z,100434.48
2023-05-02T06:44:56.524Z,100438.89
2023-05-02T06:47:09.115Z,100437.36
2023-05-02T06:49:22.494Z,100440.77
2023-05-02T06:51:35.027Z,100442.29
2023-05-02T06:53:47.648Z,100439.94
2023-05-02T06:56:00.247Z,100446.00
2023-05-02T06:58:12.921Z,100443.55
2023-05-02T07:00:25.778Z,100446.59
2023-05-02T07:02:38.500Z,100446.66
2023-05-02T07:04:51.110Z,100445.11
2023-05-02T07:07:04.094Z,100448.52
2023-05-02T07:09:16.851Z,100445.64
2023-05-02T07:11:29.379Z,100445.05
2023-05-02T07:13:41.906Z,100439.45
2023-05-02T07:15:54.666Z,100443.95
2023-05-02T07:18:07.269Z,100449.59
2023-05-02T07:20:20.127Z,100453.48
2023-05-02T07:22:32.706Z,100455.37
2023-05-02T07:24:45.344Z,100461.09
2023-05-02T07:26:58.066Z,100460.77
2023-05-02T07:29:10.948Z,100462.67
2023-05-02T07:31:23.696Z,100469.45
2023-05-02T07:33:36.475Z,100469.95
2023-05-02T07:35:49.626Z,100470.13
2023-05-02T07:38:02.139Z,100473.04
2023-05-02T07:40:14.939Z,100472.09
2023-05-02T07:42:31.140Z,100474.05
2023-05-02T07:44:43.691Z,100478.42
2023-05-02T07:46:56.276Z,100480.75
2023-05-02T07:49:08.884Z,100477.21
2023-05-02T07:51:21.668Z,100480.93
2023-05-02T07:53:34.595Z,100482.58
2023-05-02T07:55:47.526Z,100489.63
2023-05-02T07:58:00.557Z,100491.18
2023-05-02T08:00:13.940Z,100494.35
2023-05-02T08:02:27.508Z,100499.22
2023-05-02T08:04:41.058Z,100495.19
2023-05-02T08:06:54.888Z,100500.35
2023-05-02T08:09:07.665Z,100499.79
2023-05-02T08:11:22.574Z,100501.86
2023-05-02T08:13:36.374Z,100502.48
2023-05-02T08:15:48.958Z,100504.62
2023-05-02T08:18:01.649Z,100504.49
2023-05-02T08:20:14.170Z,100506.09
2023-05-02T08:22:26.734Z,100504.83
2023-05-02T08:24:39.361Z,100503.80
2023-05-02T08:26:51.900Z,100503.30
2023-05-02T08:29:04.787Z,100507.20
2023-05-02T08:31:17.619Z,100509.89
2023-05-02T08:33:30.173Z,100509.95
2023-05-02T08:35:42.929Z,100510.45
2023-05-02T08:37:56.103Z,100515.11
2023-05-02T08:40:12.063Z,100514.45
2023-05-02T08:42:25.784Z,100518.77
2023-05-02T08:44:38.385Z,100518.99
2023-05-02T08:46:52.378Z,100518.22
2023-05-02T08:49:05.523Z,100522.82
2023-05-02T08:53:34.975Z,100524.09
2023-05-02T08:55:49.147Z,100525.52
2023-05-02T08:58:03.806Z,100530.65
2023-05-02T09:00:17.598Z,100533.69
2023-05-02T09:02:55.767Z,100533.80
2023-05-02T09:05:12.230Z,100539.85
2023-05-02T09:07:24.800Z,100541.52
2023-05-02T09:09:37.662Z,100543.14
2023-05-02T09:11:51.736Z,100546.74
2023-05-02T09:14:14.724Z,100551.46
2023-05-02T09:16:28.461Z,100554.59
2023-05-02T09:18:47.201Z,100556.91
2023-05-02T09:21:01.235Z,100562.27
2023-05-02T09:23:14.226Z,100562.23
2023-05-02T09:25:41.087Z,100565.77
2023-05-02T09:27:55.882Z,100563.42
2023-05-02T09:30:25.502Z,100570.84
2023-05-02T09:32:44.981Z,100571.08
2023-05-02T09:35:07.584Z,100575.77
2023-05-02T09:37:35.966Z,100578.33
2023-05-02T09:40:06.743Z,100583.61
2023-05-02T09:42:31.219Z,100583.16
2023-05-02T09:44:43.986Z,100587.80
2023-05-02T09:47:02.129Z,100585.48
2023-05-02T09:49:18.671Z,100588.04
2023-05-02T09:51:31.326Z,100587.61
2023-05-02T09:53:45.155Z,100591.91
2023-05-02T09:56:04.634Z,100593.38
2023-05-02T09:58:22.766Z,100592.36
2023-05-02T10:00:39.906Z,100590.85
2023-05-02T10:02:52.485Z,100595.77
2023-05-02T10:05:10.159Z,100595.90
2023-05-02T10:07:23.078Z,100597.13
2023-05-02T10:09:36.322Z,100602.42
2023-05-02T10:11:56.561Z,100605.71
2023-05-02T10:14:10.361Z,100606.92
2023-05-02T10:16:29.052Z,100608.29
2023-05-02T10:19:07.423Z,100607.06
2023-05-02T10:21:30.038Z,100604.45
2023-05-02T10:23:44.159Z,100607.70
2023-05-02T10:26:00.283Z,100610.02
2023-05-02T10:28:13.183Z,100607.63
2023-05-02T10:30:26.533Z,100609.75
2023-05-02T10:32:40.451Z,100610.02
2023-05-02T10:34:56.511Z,100615.16
2023-05-02T10:37:09.088Z,100612.73
2023-05-02T10:39:24.460Z,100615.21
2023-05-02T10:41:39.812Z,100616.63
2023-05-02T10:43:52.845Z,100612.80
2023-05-02T10:46:35.900Z,100607.25
2023-05-02T10:49:07.893Z,100612.95
2023-05-02T10:51:29.763Z,100613.35
2023-05-02T10:53:44.827Z,100620.23
2023-05-02T10:56:17.442Z,100614.51
2023-05-02T10:58:30.018Z,100614.77
2023-05-02T11:00:42.598Z,100614.17
2023-05-02T11:02:55.692Z,100613.65
2023-05-02T11:05:08.415Z,100616.17
2023-05-02T11:07:21.028Z,100615.00
2023-05-02T11:09:33.743Z,100618.93
2023-05-02T11:11:48.179Z,100619.91
2023-05-02T11:14:00.793Z,100619.06
2023-05-02T11:16:14.098Z,100617.20
2023-05-02T11:18:26.923Z,100619.08
2023-05-02T11:20:41.183Z,100621.73
2023-05-02T11:22:55.779Z,100619.14
2023-05-02T11:25:30.826Z,100625.58
2023-05-02T11:27:45.546Z,100622.48
2023-05-02T11:30:06.669Z,100623.70
2023-05-02T11:32:19.315Z,100625.41
2023-05-02T11:34:41.193Z,100623.83
2023-05-02T11:36:53.854Z,100626.00
2023-05-02T11:39:19.252Z,100627.41
2023-05-02T11:41:41.666Z,100630.88
2023-05-02T11:44:03.526Z,100633.64
2023-05-02T11:46:17.461Z,100628.83
2023-05-02T11:48:30.890Z,100630.67
2023-05-02T11:50:49.554Z,100631.42
2023-05-02T11:53:03.101Z,100629.59
2023-05-02T11:55:15.888Z,100634.23
2023-05-02T11:57:28.553Z,100629.06
2023-05-02T11:59:55.252Z,100627.66
2023-05-02T12:02:07.896Z,100629.14
2023-05-02T12:04:23.912Z,100629.39
2023-05-02T12:06:36.545Z,100631.19
2023-05-02T12:08:49.443Z,100631.94
2023-05-02T12:11:02.156Z,100629.27
2023-05-02T12:13:15.066Z,100631.05
2023-05-02T12:15:27.780Z,100632.05
2023-05-02T12:17:42.829Z,100639.70
2023-05-02T12:19:55.702Z,100651.87
2023-05-02T12:22:09.826Z,100658.80
2023-05-02T12:24:22.567Z,100675.34
2023-05-02T12:26:35.128Z,100686.89
2023-05-02T12:28:49.570Z,100698.97
2023-05-02T12:31:11.028Z,100719.63
2023-05-02T12:33:23.768Z,100731.70
2023-05-02T12:35:36.622Z,100744.77
2023-05-02T12:37:49.331Z,100734.98
2023-05-02T12:40:02.214Z,100733.24
2023-05-02T12:42:16.818Z,100726.77
2023-05-02T12:44:43.261Z,100724.27
2023-05-02T12:47:00.921Z,100717.86
2023-05-02T12:49:13.572Z,100712.80
2023-05-02T12:51:28.501Z,100712.65
2023-05-02T12:53:45.791Z,100712.63
2023-05-02T12:56:03.711Z,100713.31
2023-05-02T12:58:17.096Z,100716.77
2023-05-02T13:00:36.606Z,100717.05
2023-05-02T13:02:49.508Z,100717.42
2023-05-02T13:05:02.086Z,100719.93
2023-05-02T13:07:14.632Z,100717.83
2023-05-02T13:09:27.172Z,100713.58
2023-05-02T13:11:39.788Z,100711.23
2023-05-02T13:13:52.634Z,100709.47
2023-05-02T13:16:05.579Z,100712.29
2023-05-02T13:18:18.201Z,100713.86
2023-05-02T13:20:31.239Z,100711.88
2023-05-02T13:22:43.802Z,100714.02
2023-05-02T13:24:56.322Z,100710.16
2023-05-02T13:27:08.859Z,100710.55
2023-05-02T13:29:21.498Z,100707.81
2023-05-02T13:31:34.008Z,100702.65
2023-05-02T13:33:46.544Z,100700.98
2023-05-02T13:35:59.408Z,100702.95
2023-05-02T13:38:12.015Z,100700.38
2023-05-02T13:40:24.642Z,100703.87
2023-05-02T13:42:37.185Z,100705.42
2023-05-02T13:44:50.116Z,100705.06
2023-05-02T13:47:02.753Z,100706.70
2023-05-02T13:49:15.294Z,100706.85
2023-05-02T13:51:27.964Z,100707.80
2023-05-02T13:53:40.467Z,100706.28
2023-05-02T13:55:53.024Z,100707.77
2023-05-02T13:58:05.805Z,100705.77
2023-05-02T14:00:18.560Z,100704.36
2023-05-02T14:02:31.627Z,100708.41
2023-05-02T14:04:44.319Z,100705.31
2023-05-02T14:07:08.720Z,100706.90
2023-05-02T14:09:21.332Z,100706.33
2023-05-02T14:11:36.496Z,100710.23
2023-05-02T14:13:49.010Z,100716.28
2023-05-02T14:16:01.617Z,100713.84
2023-05-02T14:18:14.310Z,100714.05
2023-05-02T14:20:27.040Z,100712.25
2023-05-02T14:22:39.547Z,100713.98
2023-05-02T14:24:53.329Z,100716.84
2023-05-02T14:27:07.663Z,100717.46
2023-05-02T14:29:20.509Z,100713.41
2023-05-02T14:31:33.190Z,100716.16
2023-05-02T14:33:46.054Z,100716.04
2023-05-02T14:35:58.541Z,100717.02
2023-05-02T14:38:11.072Z,100719.38
2023-05-02T14:40:23.615Z,100724.80
2023-05-02T14:42:36.153Z,100723.77
2023-05-02T14:44:48.699Z,100721.45
2023-05-02T14:47:01.269Z,100725.41
2023-05-02T14:49:13.796Z,100723.89
2023-05-02T14:51:26.469Z,100727.83
2023-05-02T14:53:39.601Z,100728.42
2023-05-02T14:55:52.151Z,100730.56
2023-05-02T14:58:08.937Z,100729.48
2023-05-02T15:00:21.584Z,100732.13
2023-05-02T15:02:34.600Z,100730.39
2023-05-02T15:04:47.395Z,100728.99
2023-05-02T15:07:01.041Z,100733.13
2023-05-02T15:09:14.287Z,100733.65
2023-05-02T15:11:26.781Z,100741.30
2023-05-02T15:13:39.280Z,100743.89
2023-05-02T15:15:53.746Z,100744.38
2023-05-02T15:18:06.665Z,100744.77
2023-05-02T15:20:19.586Z,100746.54
2023-05-02T15:22:32.222Z,100748.72
2023-05-02T15:24:44.750Z,100750.90
2023-05-02T15:26:57.315Z,100751.77
2023-05-02T15:29:09.834Z,100752.66
2023-05-02T15:31:22.955Z,100748.02
2023-05-02T15:33:35.519Z,100750.99
2023-05-02T15:35:56.225Z,100751.37
2023-05-02T15:38:09.077Z,100751.02
2023-05-02T15:40:21.622Z,100753.91
2023-05-02T15:42:37.265Z,100757.45
2023-05-02T15:44:49.916Z,100757.30
2023-05-02T15:47:02.993Z,100759.67
2023-05-02T15:49:15.794Z,100762.84
2023-05-02T15:51:28.363Z,100761.73
2023-05-02T15:53:44.093Z,100763.27
2023-05-02T15:55:56.940Z,100762.45
2023-05-02T15:58:10.059Z,100766.70
2023-05-02T16:00:22.693Z,100763.04
2023-05-02T16:02:35.432Z,100765.69
2023-05-02T16:04:47.987Z,100762.30
2023-05-02T16:07:01.741Z,100764.27
2023-05-02T16:09:14.462Z,100769.02
2023-05-02T16:11:27.029Z,100770.08
2023-05-02T16:13:40.371Z,100769.58
2023-05-02T16:15:53.077Z,100776.10
2023-05-02T16:18:05.939Z,100777.38
2023-05-02T16:20:18.958Z,100777.11
2023-05-02T16:22:31.479Z,100779.34
2023-05-02T16:24:44.049Z,100780.39
2023-05-02T16:26:56.586Z,100779.98
2023-05-02T16:29:09.087Z,100784.13
2023-05-02T16:31:21.667Z,100785.08
2023-05-02T16:33:34.247Z,100786.75
2023-05-02T16:35:47.199Z,100790.20
2023-05-02T16:37:59.733Z,100795.97
2023-05-02T16:40:12.888Z,100804.30
2023-05-02T16:42:25.620Z,100807.20
2023-05-02T16:44:38.172Z,100810.60
2023-05-02T16:46:51.323Z,100817.05
2023-05-02T16:49:03.887Z,100819.38
2023-05-02T16:51:16.662Z,100816.57
2023-05-02T16:53:30.494Z,100819.45
2023-05-02T16:55:42.999Z,100819.26
2023-05-02T16:57:55.687Z,100826.47
2023-05-02T17:00:11.067Z,100830.35
2023-05-02T17:02:24.733Z,100835.44
2023-05-02T17:04:37.596Z,100834.97
2023-05-02T17:06:50.301Z,100831.73
2023-05-02T17:09:03.697Z,100832.73
2023-05-02T17:11:17.408Z,100832.71
2023-05-02T17:13:30.002Z,100836.02
2023-05-02T17:15:42.678Z,100838.20
2023-05-02T17:17:55.429Z,100841.34
2023-05-02T17:20:08.247Z,100843.02
2023-05-02T17:22:21.296Z,100843.02
2023-05-02T17:24:34.434Z,100845.64
2023-05-02T17:26:47.246Z,100850.56
2023-05-02T17:28:59.718Z,100853.55
2023-05-02T17:31:13.048Z,100852.91
2023-05-02T17:33:27.368Z,100858.11
2023-05-02T17:35:40.026Z,100858.48
2023-05-02T17:37:52.605Z,100860.48
2023-05-02T17:40:06.053Z,100864.70
2023-05-02T17:42:18.619Z,100866.80
2023-05-02T17:44:31.560Z,100866.33
2023-05-02T17:46:44.320Z,100870.59
2023-05-02T17:48:57.574Z,100872.02
2023-05-02T17:51:11.768Z,100873.85
2023-05-02T17:53:24.355Z,100877.23
2023-05-02T17:55:38.369Z,100881.65
2023-05-02T17:57:50.902Z,100881.58
2023-05-02T18:00:07.339Z,100882.70
2023-05-02T18:02:21.720Z,100889.89
2023-05-02T18:04:34.443Z,100893.40
2023-05-02T18:06:47.082Z,100896.87
2023-05-02T18:08:59.678Z,100905.39
2023-05-02T18:11:16.836Z,100905.75
2023-05-02T18:13:29.456Z,100907.23
2023-05-02T18:15:42.081Z,100910.83
2023-05-02T18:17:56.845Z,100913.65
2023-05-02T18:20:10.255Z,100915.31
2023-05-02T18:22:23.075Z,100916.91
2023-05-02T18:24:36.146Z,100922.45
2023-05-02T18:26:49.074Z,100922.70
2023-05-02T18:29:02.058Z,100923.90
2023-05-02T18:31:16.410Z,100931.98
2023-05-02T18:33:28.958Z,100935.25
2023-05-02T18:35:46.971Z,100938.96
2023-05-02T18:37:59.623Z,100941.48
2023-05-02T18:40:12.897Z,100941.71
2023-05-02T18:42:25.604Z,100945.33
2023-05-02T18:44:38.138Z,100947.80
2023-05-02T18:46:50.809Z,100949.13
2023-05-02T18:49:03.473Z,100954.82
2023-05-02T18:51:16.085Z,100961.35
2023-05-02T18:53:28.670Z,100963.56
2023-05-02T18:55:41.217Z,100966.02
2023-05-02T18:57:53.851Z,100969.38
2023-05-02T19:00:07.004Z,100975.01
2023-05-02T19:02:19.521Z,100978.09
2023-05-02T19:04:32.161Z,100982.85
2023-05-02T19:06:45.053Z,100988.95
2023-05-02T19:08:58.643Z,100993.29
2023-05-02T19:11:11.196Z,100996.57
2023-05-02T19:13:26.909Z,100995.70
2023-05-02T19:15:39.490Z,100999.13
2023-05-02T19:17:53.895Z,101003.88
2023-05-02T19:20:07.275Z,101006.86
2023-05-02T19:22:22.137Z,101010.48
2023-05-02T19:24:36.000Z,101010.52
2023-05-02T19:26:48.650Z,101015.17
2023-05-02T19:29:01.332Z,101017.52
2023-05-02T19:31:18.344Z,101020.23
2023-05-02T19:33:31.018Z,101021.79
2023-05-02T19:35:43.588Z,101026.68
2023-05-02T19:37:56.119Z,101031.17
2023-05-02T19:40:10.786Z,101031.52
2023-05-02T19:42:23.373Z,101034.48
2023-05-02T19:44:35.900Z,101038.70
2023-05-02T19:46:48.454Z,101043.27
2023-05-02T19:49:00.990Z,101047.41
2023-05-02T19:51:13.892Z,101048.69
2023-05-02T19:53:26.419Z,101051.02
2023-05-02T19:55:39.037Z,101052.24
2023-05-02T19:57:51.610Z,101054.83
2023-05-02T20:00:05.155Z,101056.98
2023-05-02T20:02:17.806Z,101058.02
2023-05-02T20:04:30.471Z,101060.79
2023-05-02T20:06:43.113Z,101062.05
2023-05-02T20:08:55.785Z,101066.02
2023-05-02T20:11:08.377Z,101067.95
2023-05-02T20:13:21.019Z,101068.30
2023-05-02T20:15:33.691Z,101070.13
2023-05-02T20:17:47.504Z,101078.19
2023-05-02T20:20:02.327Z,101079.63
2023-05-02T20:22:15.039Z,101079.84
2023-05-02T20:24:27.596Z,101079.29
2023-05-02T20:26:40.236Z,101081.30
2023-05-02T20:28:52.801Z,101082.16
2023-05-02T20:31:05.449Z,101083.50
2023-05-02T20:33:18.777Z,101083.93
2023-05-02T20:35:31.629Z,101089.33
2023-05-02T20:37:44.165Z,101090.73
2023-05-02T20:39:56.883Z,101093.33
2023-05-02T20:42:09.518Z,101091.64
2023-05-02T20:44:22.490Z,101096.09
2023-05-02T20:46:35.296Z,101093.48
2023-05-02T20:48:48.025Z,101094.05
2023-05-02T20:51:00.608Z,101099.36
2023-05-02T20:53:13.144Z,101101.34
2023-05-02T20:55:25.828Z,101101.83
2023-05-02T20:57:38.731Z,101105.06
2023-05-02T20:59:51.322Z,101108.71
2023-05-02T21:02:05.544Z,101113.64
2023-05-02T21:04:18.130Z,101114.16
2023-05-02T21:06:33.614Z,101116.05
2023-05-02T21:08:46.491Z,101118.84
2023-05-02T21:10:58.999Z,101123.58
2023-05-02T21:13:12.038Z,101127.73
2023-05-02T21:15:24.622Z,101130.41
2023-05-02T21:17:39.089Z,101135.92
2023-05-02T21:19:53.890Z,101135.73
2023-05-02T21:22:06.460Z,101134.66
2023-05-02T21:24:19.003Z,101135.86
2023-05-02T21:26:31.637Z,101135.08
2023-05-02T21:28:44.273Z,101137.41
2023-05-02T21:30:56.770Z,101140.63
2023-05-02T21:33:09.697Z,101140.21
2023-05-02T21:35:22.304Z,101140.96
2023-05-02T21:37:34.978Z,101141.24
2023-05-02T21:39:47.647Z,101141.64
2023-05-02T21:42:01.444Z,101145.48
2023-05-02T21:44:14.295Z,101146.70
2023-05-02T21:46:26.913Z,101145.84
2023-05-02T21:48:39.703Z,101146.74
2023-05-02T21:50:52.364Z,101143.82
2023-05-02T21:53:04.893Z,101145.05
2023-05-02T21:55:17.451Z,101151.06
2023-05-02T21:57:29.975Z,101153.71
2023-05-02T21:59:43.078Z,101155.84
2023-05-02T22:01:55.688Z,101157.20
2023-05-02T22:04:08.380Z,101160.77
2023-05-02T22:06:21.138Z,101161.82
2023-05-02T22:08:33.732Z,101165.35
2023-05-02T22:10:46.606Z,101173.51
2023-05-02T22:12:59.142Z,101176.72
2023-05-02T22:15:12.826Z,101177.02
2023-05-02T22:17:25.492Z,101177.86
2023-05-02T22:19:38.675Z,101178.00
2023-05-02T22:21:51.643Z,101179.04
2023-05-02T22:24:04.535Z,101181.08
2023-05-02T22:26:17.133Z,101181.83
2023-05-02T22:28:29.680Z,101183.58
2023-05-02T22:30:42.995Z,101183.58
2023-05-02T22:32:55.823Z,101184.02
2023-05-02T22:35:09.052Z,101183.64
2023-05-02T22:37:21.781Z,101186.30
2023-05-02T22:39:34.452Z,101189.67
2023-05-02T22:41:47.045Z,101187.86
2023-05-02T22:43:59.574Z,101190.37
2023-05-02T22:46:12.118Z,101194.48
2023-05-02T22:48:25.201Z,101199.53
2023-05-02T22:50:38.529Z,101208.98
2023-05-02T22:52:51.220Z,101217.13
2023-05-02T22:55:09.365Z,101222.52
2023-05-02T22:57:22.448Z,101224.39
2023-05-02T22:59:35.018Z,101224.46
2023-05-02T23:01:48.423Z,101227.55
2023-05-02T23:04:01.375Z,101229.17
2023-05-02T23:06:14.354Z,101233.35
2023-05-02T23:08:26.993Z,101231.27
2023-05-02T23:10:39.595Z,101238.27
2023-05-02T23:12:52.208Z,101237.18
2023-05-02T23:15:05.412Z,101238.89
2023-05-02T23:17:17.991Z,101238.23
2023-05-02T23:19:32.902Z,101242.98
2023-05-02T23:21:45.847Z,101243.20
2023-05-02T23:23:58.533Z,101242.43
2023-05-02T23:26:11.391Z,101241.46
2023-05-02T23:28:23.985Z,101244.79
2023-05-02T23:30:38.262Z,101247.16
2023-05-02T23:32:51.549Z,101253.33
2023-05-02T23:35:05.769Z,101251.88
2023-05-02T23:37:18.329Z,101249.35
2023-05-02T23:39:30.975Z,101250.49
2023-05-02T23:41:43.547Z,101253.77
2023-05-02T23:43:56.110Z,101253.61
2023-05-02T23:46:08.757Z,101254.83
2023-05-02T23:48:21.450Z,101252.64
2023-05-02T23:50:34.047Z,101251.98
2023-05-02T23:52:46.624Z,101252.70
2023-05-02T23:54:59.184Z,101252.98
2023-05-02T23:57:11.963Z,101256.14
2023-05-02T23:59:24.706Z,101258.08
